Ambrose, North Dakota
Current Conditions -  °F | °C
As of 3:55 AM on Friday 19 Dec 2014 (Local Time) from KD50 Reporting Station
Haze Haze  
Wind Chill: 25°   Ceiling: NA
Heat Index: 25°   Visibility: 3mi
Dew Point: 25°   Wind: 3mph
Humidity: 100%   Direction: 260°W
Pressure: 29.92"   Gusts: NA
Location:  48.95°N, 103.48°W
Report Text: KD50 190955Z AUTO 26003KT 3SM BR M04/M04 A2992 RMK AO2
Loading
Personal Weather Stations






























Interactive Weather Map New forecast layout! Learn more

10-Day Weather Forecast

Advertisements
Track Severe Weather on mobile